Time;durP1;ratioP1;P1;durP2;ratioP2;P2;SDS_P1;SDS_P2;PMS_P1;PMS_P2;Temp;Humidity;BMP_temperature;BMP_pressure;BME280_temperature;BME280_humidity;BME280_pressure;Samples;Min_cycle;Max_cycle;Signal;HPM_P1;HPM_P2
2023/03/02 00:00:00;;;;;;;;;;;19.20;40.60;;;;;;5119349;27;19920;-61
2023/03/02 00:02:28;;;;;;;;;;;19.20;40.60;;;;;;5102259;28;19979;-63
2023/03/02 00:04:55;;;;;;;;;;;19.20;40.60;;;;;;5107888;28;19927;-63
2023/03/02 00:07:22;;;;;;;;;;;19.20;40.60;;;;;;5086260;28;20357;-63
2023/03/02 00:09:49;;;;;;;;;;;19.20;40.60;;;;;;5084371;28;19930;-63
2023/03/02 00:12:15;;;;;;;;;;;19.20;40.60;;;;;;5104019;28;19924;-63
2023/03/02 00:14:44;;;;;;;;;;;19.20;40.60;;;;;;5100742;28;20407;-62
2023/03/02 00:17:10;;;;;;;;;;;19.20;40.60;;;;;;5090200;28;19926;-63
2023/03/02 00:19:37;;;;;;;;;;;19.20;40.60;;;;;;5083589;28;19989;-63
2023/03/02 00:22:04;;;;;;;;;;;19.20;40.60;;;;;;5085974;28;19950;-63
2023/03/02 00:24:31;;;;;;;;;;;19.20;40.60;;;;;;5106907;28;19965;-63
2023/03/02 00:26:58;;;;;;;;;;;19.20;40.60;;;;;;5106238;28;19928;-63
2023/03/02 00:29:24;;;;;;;;;;;19.20;40.60;;;;;;5091217;28;19973;-63
2023/03/02 00:31:52;;;;;;;;;;;19.20;40.60;;;;;;5085946;28;19970;-63
2023/03/02 00:34:19;;;;;;;;;;;19.20;40.60;;;;;;5119447;27;20072;-63
2023/03/02 00:36:48;;;;;;;;;;;19.20;40.60;;;;;;5118643;27;19956;-62
2023/03/02 00:39:18;;;;;;;;;;;19.20;40.50;;;;;;5105536;28;19920;-62
2023/03/02 00:41:46;;;;;;;;;;;19.20;40.60;;;;;;5090944;28;20028;-62
2023/03/02 00:44:16;;;;;;;;;;;19.20;40.60;;;;;;5087242;28;19986;-62
2023/03/02 00:46:43;;;;;;;;;;;19.20;40.60;;;;;;5086420;28;20395;-63
2023/03/02 00:49:11;;;;;;;;;;;19.20;40.50;;;;;;5084074;28;19923;-63
2023/03/02 00:51:38;;;;;;;;;;;19.20;40.60;;;;;;5104413;28;19990;-63
2023/03/02 00:54:04;;;;;;;;;;;19.20;40.60;;;;;;5087646;28;20341;-63
2023/03/02 00:56:31;;;;;;;;;;;19.20;40.50;;;;;;5103361;28;20382;-63
2023/03/02 00:58:58;;;;;;;;;;;19.20;40.50;;;;;;5082263;28;19924;-63
2023/03/02 01:01:25;;;;;;;;;;;19.20;40.50;;;;;;5090093;28;19920;-62
2023/03/02 01:03:51;;;;;;;;;;;19.20;40.50;;;;;;5098045;28;20109;-63
2023/03/02 01:06:20;;;;;;;;;;;19.20;40.50;;;;;;5102481;28;20331;-63
2023/03/02 01:08:47;;;;;;;;;;;19.20;40.50;;;;;;5117032;27;19920;-63
2023/03/02 01:11:14;;;;;;;;;;;19.10;40.40;;;;;;5085137;28;19928;-62
2023/03/02 01:13:40;;;;;;;;;;;19.20;40.50;;;;;;5088794;28;19919;-63
2023/03/02 01:16:07;;;;;;;;;;;19.20;40.50;;;;;;5083408;28;19926;-62
2023/03/02 01:18:37;;;;;;;;;;;19.10;40.40;;;;;;5088099;28;19927;-63
2023/03/02 01:21:07;;;;;;;;;;;19.10;40.40;;;;;;5099754;28;20319;-61
2023/03/02 01:23:35;;;;;;;;;;;19.10;40.40;;;;;;5086858;28;19924;-62
2023/03/02 01:26:02;;;;;;;;;;;19.10;40.40;;;;;;5087854;28;20004;-62
2023/03/02 01:28:29;;;;;;;;;;;19.10;40.40;;;;;;5082673;28;19969;-63
2023/03/02 01:30:56;;;;;;;;;;;19.10;40.40;;;;;;5085257;28;19930;-63
2023/03/02 01:33:23;;;;;;;;;;;19.10;40.40;;;;;;5101717;28;19927;-63
2023/03/02 01:35:50;;;;;;;;;;;19.10;40.30;;;;;;5116500;27;19920;-63
2023/03/02 01:38:17;;;;;;;;;;;19.10;40.30;;;;;;5082475;28;19935;-63
2023/03/02 01:40:45;;;;;;;;;;;19.10;40.30;;;;;;5086427;28;19967;-62
2023/03/02 01:43:12;;;;;;;;;;;19.10;40.30;;;;;;5084987;28;19928;-62
2023/03/02 01:45:51;;;;;;;;;;;19.10;40.30;;;;;;5081377;28;20002;-62
2023/03/02 01:48:19;;;;;;;;;;;19.10;40.30;;;;;;5084639;28;19927;-63
2023/03/02 01:50:46;;;;;;;;;;;19.10;40.30;;;;;;5085951;28;19923;-61
2023/03/02 01:53:13;;;;;;;;;;;19.10;40.30;;;;;;5117598;27;19987;-62
2023/03/02 01:55:40;;;;;;;;;;;19.10;40.30;;;;;;5082782;28;19924;-62
2023/03/02 01:58:08;;;;;;;;;;;19.10;40.30;;;;;;5084224;28;19943;-62
2023/03/02 02:00:36;;;;;;;;;;;19.10;40.30;;;;;;5091387;28;19920;-63
2023/03/02 02:03:07;;;;;;;;;;;19.10;40.30;;;;;;5101064;28;19924;-62
2023/03/02 02:05:35;;;;;;;;;;;19.10;40.30;;;;;;5085492;28;20389;-62
2023/03/02 02:08:01;;;;;;;;;;;19.10;40.30;;;;;;5081304;28;19920;-62
2023/03/02 02:10:28;;;;;;;;;;;19.10;40.30;;;;;;5085707;28;19927;-63
2023/03/02 02:12:55;;;;;;;;;;;19.10;40.30;;;;;;5086338;28;19924;-62
2023/03/02 02:15:23;;;;;;;;;;;19.10;40.30;;;;;;5083300;28;19931;-62
2023/03/02 02:17:50;;;;;;;;;;;19.10;40.30;;;;;;5084731;28;19969;-63
2023/03/02 02:20:20;;;;;;;;;;;19.10;40.90;;;;;;5082117;28;19946;-62
2023/03/02 02:22:49;;;;;;;;;;;19.10;40.30;;;;;;5090728;28;19919;-61
2023/03/02 02:25:18;;;;;;;;;;;19.10;40.30;;;;;;5086297;28;19920;-63
2023/03/02 02:27:46;;;;;;;;;;;19.10;40.30;;;;;;5116261;27;19989;-63
2023/03/02 02:30:13;;;;;;;;;;;19.10;40.30;;;;;;5084591;28;19920;-62
2023/03/02 02:32:40;;;;;;;;;;;19.10;40.30;;;;;;5084586;28;19989;-63
2023/03/02 02:35:07;;;;;;;;;;;19.10;40.30;;;;;;5086172;28;20014;-62
2023/03/02 02:37:35;;;;;;;;;;;19.10;40.30;;;;;;5080564;28;19923;-62
2023/03/02 02:40:06;;;;;;;;;;;19.10;40.30;;;;;;5081829;28;19924;-62
2023/03/02 02:42:33;;;;;;;;;;;19.10;40.30;;;;;;5105034;28;19931;-62
2023/03/02 02:45:02;;;;;;;;;;;19.10;40.20;;;;;;5081595;28;19923;-61
2023/03/02 02:47:29;;;;;;;;;;;19.10;40.30;;;;;;5105570;28;19919;-62
2023/03/02 02:49:56;;;;;;;;;;;19.10;40.20;;;;;;5081274;28;19924;-61
2023/03/02 02:52:23;;;;;;;;;;;19.10;40.20;;;;;;5107944;28;19927;-62
2023/03/02 02:54:49;;;;;;;;;;;19.10;40.20;;;;;;5090847;28;19927;-62
2023/03/02 02:57:16;;;;;;;;;;;19.10;40.20;;;;;;5087349;28;19985;-62
2023/03/02 02:59:44;;;;;;;;;;;19.10;40.20;;;;;;5088716;28;20204;-62
2023/03/02 03:02:13;;;;;;;;;;;19.10;40.20;;;;;;5091085;28;19931;-62
2023/03/02 03:04:39;;;;;;;;;;;19.00;40.10;;;;;;5103953;28;19924;-62
2023/03/02 03:07:06;;;;;;;;;;;19.10;40.20;;;;;;5087117;28;19924;-62
2023/03/02 03:09:33;;;;;;;;;;;19.10;40.20;;;;;;5092566;28;19919;-62
2023/03/02 03:12:01;;;;;;;;;;;19.10;40.20;;;;;;5090427;28;19970;-61
2023/03/02 03:14:28;;;;;;;;;;;19.10;40.80;;;;;;5086670;28;19932;-62
2023/03/02 03:16:55;;;;;;;;;;;19.10;40.20;;;;;;5087897;28;19951;-62
2023/03/02 03:19:24;;;;;;;;;;;19.10;40.20;;;;;;5087617;28;19920;-63
2023/03/02 03:21:51;;;;;;;;;;;19.10;40.20;;;;;;5092036;28;19919;-62
2023/03/02 03:24:18;;;;;;;;;;;19.10;40.20;;;;;;5087264;28;19929;-62
2023/03/02 03:26:45;;;;;;;;;;;19.10;40.20;;;;;;5086485;28;20006;-62
2023/03/02 03:29:11;;;;;;;;;;;19.10;40.10;;;;;;5089622;28;20339;-62
2023/03/02 03:31:38;;;;;;;;;;;19.10;40.10;;;;;;5087392;28;19925;-62
2023/03/02 03:34:05;;;;;;;;;;;19.10;40.10;;;;;;5103060;28;19972;-62
2023/03/02 03:36:33;;;;;;;;;;;19.10;40.20;;;;;;5111413;28;20357;-62
2023/03/02 03:39:00;;;;;;;;;;;19.00;40.00;;;;;;5118357;27;20262;-62
2023/03/02 03:41:26;;;;;;;;;;;19.10;40.10;;;;;;5106758;28;19924;-63
2023/03/02 03:43:54;;;;;;;;;;;19.10;40.10;;;;;;5092346;28;19923;-62
2023/03/02 03:46:21;;;;;;;;;;;19.10;40.10;;;;;;5086067;28;19927;-62
2023/03/02 03:48:47;;;;;;;;;;;19.10;40.10;;;;;;5083417;28;19931;-62
2023/03/02 03:51:14;;;;;;;;;;;19.10;40.10;;;;;;5087777;28;19923;-62
2023/03/02 03:53:42;;;;;;;;;;;19.10;40.10;;;;;;5090094;28;20048;-63
2023/03/02 03:56:09;;;;;;;;;;;19.10;40.10;;;;;;5085811;28;19986;-62
2023/03/02 03:58:35;;;;;;;;;;;19.10;40.10;;;;;;5104566;28;19920;-62
2023/03/02 04:01:02;;;;;;;;;;;19.10;40.10;;;;;;5087162;28;19931;-63
2023/03/02 04:03:29;;;;;;;;;;;19.10;40.10;;;;;;5104107;28;19973;-62
2023/03/02 04:05:56;;;;;;;;;;;19.10;40.10;;;;;;5107114;28;19948;-62
2023/03/02 04:08:22;;;;;;;;;;;19.10;40.10;;;;;;5088972;28;19920;-62
2023/03/02 04:10:51;;;;;;;;;;;19.10;40.00;;;;;;5086186;28;19938;-62
2023/03/02 04:13:18;;;;;;;;;;;19.10;40.00;;;;;;5087400;28;20298;-62
2023/03/02 04:15:45;;;;;;;;;;;19.00;40.00;;;;;;5082517;28;19954;-62
2023/03/02 04:18:12;;;;;;;;;;;19.00;40.00;;;;;;5102587;28;19932;-62
2023/03/02 04:20:38;;;;;;;;;;;19.00;40.00;;;;;;5091241;28;19931;-62
2023/03/02 04:23:05;;;;;;;;;;;19.10;40.00;;;;;;5088629;28;19968;-62
2023/03/02 04:25:32;;;;;;;;;;;19.10;40.00;;;;;;5107465;28;19920;-62
2023/03/02 04:28:00;;;;;;;;;;;19.00;39.90;;;;;;5088178;28;20001;-63
2023/03/02 04:30:27;;;;;;;;;;;19.00;40.00;;;;;;5090782;28;19966;-63
2023/03/02 04:32:56;;;;;;;;;;;19.00;39.90;;;;;;5106659;28;19966;-62
2023/03/02 04:35:24;;;;;;;;;;;19.00;39.90;;;;;;5084982;28;19988;-62
2023/03/02 04:37:50;;;;;;;;;;;19.00;39.90;;;;;;5085033;28;19927;-62
2023/03/02 04:40:20;;;;;;;;;;;19.00;39.90;;;;;;5085913;28;19927;-62
2023/03/02 04:42:47;;;;;;;;;;;19.00;39.90;;;;;;5088180;28;19926;-63
2023/03/02 04:45:15;;;;;;;;;;;19.00;39.90;;;;;;5085730;28;19924;-63
2023/03/02 04:47:42;;;;;;;;;;;19.00;39.90;;;;;;5083537;28;19927;-63
2023/03/02 04:50:09;;;;;;;;;;;19.00;39.90;;;;;;5087082;28;19924;-63
2023/03/02 04:52:36;;;;;;;;;;;19.00;39.90;;;;;;5103265;28;19955;-63
2023/03/02 04:55:03;;;;;;;;;;;19.00;39.90;;;;;;5088530;28;19984;-63
2023/03/02 04:57:29;;;;;;;;;;;19.00;39.90;;;;;;5087027;28;19950;-63
2023/03/02 04:59:56;;;;;;;;;;;19.00;39.90;;;;;;5087462;28;20022;-61
2023/03/02 05:02:25;;;;;;;;;;;19.00;39.80;;;;;;5090451;28;19973;-61
2023/03/02 05:04:51;;;;;;;;;;;19.00;39.90;;;;;;5085214;28;19927;-62
2023/03/02 05:07:18;;;;;;;;;;;19.00;39.80;;;;;;5081974;28;19928;-63
2023/03/02 05:09:45;;;;;;;;;;;19.00;39.90;;;;;;5087378;28;19923;-62
2023/03/02 05:12:12;;;;;;;;;;;19.00;39.90;;;;;;5089542;28;19932;-63
2023/03/02 05:14:39;;;;;;;;;;;19.00;39.80;;;;;;5084470;28;19927;-62
2023/03/02 05:17:05;;;;;;;;;;;19.00;39.80;;;;;;5108490;28;20243;-63
2023/03/02 05:19:33;;;;;;;;;;;19.00;39.80;;;;;;5085079;28;19989;-63
2023/03/02 05:22:00;;;;;;;;;;;19.00;39.80;;;;;;5105587;28;20493;-63
2023/03/02 05:24:27;;;;;;;;;;;19.00;39.80;;;;;;5119205;27;19969;-63
2023/03/02 05:26:53;;;;;;;;;;;19.00;39.80;;;;;;5081579;28;19920;-63
2023/03/02 05:29:20;;;;;;;;;;;19.00;39.80;;;;;;5118005;27;19920;-62
2023/03/02 05:31:47;;;;;;;;;;;19.00;39.80;;;;;;5088668;28;19928;-62
2023/03/02 05:34:15;;;;;;;;;;;19.00;39.80;;;;;;5089793;28;19985;-62
2023/03/02 05:36:43;;;;;;;;;;;19.00;39.80;;;;;;5084772;28;19924;-62
2023/03/02 05:39:10;;;;;;;;;;;19.00;39.80;;;;;;5085331;28;19920;-62
2023/03/02 05:41:37;;;;;;;;;;;19.00;39.80;;;;;;5115665;27;19955;-62
2023/03/02 05:44:04;;;;;;;;;;;19.00;39.80;;;;;;5083462;28;19975;-62
2023/03/02 05:46:31;;;;;;;;;;;19.00;39.80;;;;;;5102288;28;19936;-63
2023/03/02 05:48:58;;;;;;;;;;;19.00;39.80;;;;;;5086955;28;20383;-63
2023/03/02 05:51:25;;;;;;;;;;;19.00;39.80;;;;;;5104267;28;19919;-63
2023/03/02 05:53:53;;;;;;;;;;;19.00;39.80;;;;;;5114191;27;19924;-62
2023/03/02 05:56:21;;;;;;;;;;;19.00;39.80;;;;;;5099826;28;19920;-63
2023/03/02 05:58:48;;;;;;;;;;;19.00;39.80;;;;;;5101825;28;19924;-63
2023/03/02 06:01:15;;;;;;;;;;;19.00;39.80;;;;;;5089683;28;19920;-63
2023/03/02 06:03:42;;;;;;;;;;;19.00;39.80;;;;;;5116890;27;19932;-63
2023/03/02 06:06:12;;;;;;;;;;;19.00;39.80;;;;;;5081389;28;19924;-63
2023/03/02 06:08:39;;;;;;;;;;;19.00;39.80;;;;;;5102216;28;19920;-62
2023/03/02 06:11:08;;;;;;;;;;;19.00;39.80;;;;;;5081475;28;19969;-62
2023/03/02 06:13:35;;;;;;;;;;;19.00;39.80;;;;;;5084673;28;19926;-63
2023/03/02 06:16:02;;;;;;;;;;;19.00;39.70;;;;;;5102403;28;19996;-63
2023/03/02 06:18:29;;;;;;;;;;;19.00;39.80;;;;;;5105114;28;19931;-62
2023/03/02 06:20:56;;;;;;;;;;;19.00;39.80;;;;;;5106656;28;20112;-63
2023/03/02 06:23:23;;;;;;;;;;;19.00;39.80;;;;;;5086222;28;19971;-64
2023/03/02 06:25:49;;;;;;;;;;;19.00;39.80;;;;;;5081333;28;19920;-63
2023/03/02 06:28:19;;;;;;;;;;;19.00;39.80;;;;;;5103190;28;19972;-63
2023/03/02 06:30:47;;;;;;;;;;;19.00;39.90;;;;;;5085680;28;19924;-63
2023/03/02 06:33:14;;;;;;;;;;;19.00;39.90;;;;;;5086439;28;19931;-63
2023/03/02 06:35:40;;;;;;;;;;;19.00;39.90;;;;;;5081057;28;19921;-63
2023/03/02 06:38:07;;;;;;;;;;;19.00;39.90;;;;;;5101428;28;19920;-63
2023/03/02 06:40:34;;;;;;;;;;;19.10;40.00;;;;;;5104278;28;19962;-62
2023/03/02 06:43:01;;;;;;;;;;;19.00;39.90;;;;;;5101012;28;19966;-62
2023/03/02 06:45:32;;;;;;;;;;;19.00;39.90;;;;;;5099343;28;19920;-62
2023/03/02 06:47:59;;;;;;;;;;;19.00;39.90;;;;;;5105126;28;19920;-62
2023/03/02 06:50:26;;;;;;;;;;;19.00;39.90;;;;;;5087872;28;19928;-62
2023/03/02 06:52:53;;;;;;;;;;;19.10;40.00;;;;;;5101680;28;20143;-62
2023/03/02 06:55:20;;;;;;;;;;;19.00;39.90;;;;;;5082490;28;19923;-62
2023/03/02 06:57:49;;;;;;;;;;;19.00;39.90;;;;;;5099690;28;19928;-62
2023/03/02 07:00:16;;;;;;;;;;;19.10;40.00;;;;;;5085045;28;19924;-61
2023/03/02 07:02:44;;;;;;;;;;;19.00;40.00;;;;;;5085883;28;19919;-62
2023/03/02 07:05:11;;;;;;;;;;;19.10;40.00;;;;;;5101968;28;19931;-62
2023/03/02 07:07:38;;;;;;;;;;;19.00;39.90;;;;;;5100473;28;19924;-62
2023/03/02 07:10:05;;;;;;;;;;;19.00;39.90;;;;;;5105124;28;20004;-62
2023/03/02 07:12:32;;;;;;;;;;;19.10;40.00;;;;;;5082371;28;19924;-62
2023/03/02 07:14:59;;;;;;;;;;;19.00;39.90;;;;;;5081504;28;19971;-62
2023/03/02 07:17:25;;;;;;;;;;;19.00;39.90;;;;;;5087940;28;19920;-62
2023/03/02 07:19:53;;;;;;;;;;;19.00;40.00;;;;;;5106194;28;19920;-62
2023/03/02 07:22:20;;;;;;;;;;;19.00;40.00;;;;;;5088025;28;19927;-62
2023/03/02 07:24:50;;;;;;;;;;;19.00;39.90;;;;;;5084532;28;20274;-63
2023/03/02 07:27:17;;;;;;;;;;;19.00;39.90;;;;;;5114313;28;19920;-62
2023/03/02 07:29:43;;;;;;;;;;;19.00;39.90;;;;;;5085054;28;19919;-63
2023/03/02 07:32:10;;;;;;;;;;;19.00;39.90;;;;;;5077993;28;19923;-63
2023/03/02 07:34:37;;;;;;;;;;;19.00;39.90;;;;;;5084832;28;19988;-62
2023/03/02 07:37:06;;;;;;;;;;;19.00;40.00;;;;;;5105597;28;19919;-62
2023/03/02 07:39:32;;;;;;;;;;;19.00;39.90;;;;;;5087927;28;19931;-63
2023/03/02 07:41:59;;;;;;;;;;;19.00;39.90;;;;;;5087041;28;19973;-63
2023/03/02 07:44:26;;;;;;;;;;;19.00;39.90;;;;;;5120342;27;20015;-63
2023/03/02 07:46:53;;;;;;;;;;;19.00;40.00;;;;;;5090163;28;19920;-62
2023/03/02 07:49:20;;;;;;;;;;;19.00;40.00;;;;;;5107695;28;19941;-62
2023/03/02 07:51:46;;;;;;;;;;;19.00;39.90;;;;;;5084264;28;19924;-62
2023/03/02 07:54:14;;;;;;;;;;;19.00;39.90;;;;;;5107686;28;19919;-62
2023/03/02 07:56:41;;;;;;;;;;;19.00;40.00;;;;;;5091072;28;19920;-62
2023/03/02 07:59:08;;;;;;;;;;;19.00;39.90;;;;;;5089226;28;19920;-63
2023/03/02 08:01:34;;;;;;;;;;;19.00;39.90;;;;;;5107617;27;19969;-63
2023/03/02 08:04:01;;;;;;;;;;;19.00;40.00;;;;;;5094430;28;20071;-63
2023/03/02 08:06:28;;;;;;;;;;;19.00;40.00;;;;;;5094142;28;19998;-63
2023/03/02 08:08:55;;;;;;;;;;;19.00;39.90;;;;;;5125989;27;19919;-63
2023/03/02 08:11:23;;;;;;;;;;;19.00;40.00;;;;;;5089672;28;19928;-63
2023/03/02 08:13:49;;;;;;;;;;;19.00;40.00;;;;;;5092696;28;20383;-63
2023/03/02 08:16:16;;;;;;;;;;;19.00;39.90;;;;;;5094292;28;19972;-63
2023/03/02 08:18:43;;;;;;;;;;;19.00;39.90;;;;;;5111930;28;19943;-63
2023/03/02 08:21:13;;;;;;;;;;;19.00;40.00;;;;;;5112587;28;19949;-63
2023/03/02 08:23:40;;;;;;;;;;;19.00;40.00;;;;;;5111778;28;19969;-63
2023/03/02 08:26:07;;;;;;;;;;;19.00;40.00;;;;;;5093744;28;19919;-63
2023/03/02 08:28:35;;;;;;;;;;;19.10;40.00;;;;;;5093554;28;19920;-63
2023/03/02 08:31:02;;;;;;;;;;;19.10;40.00;;;;;;5093642;28;19931;-63
2023/03/02 08:33:29;;;;;;;;;;;19.00;40.00;;;;;;5093910;28;19924;-62
2023/03/02 08:35:56;;;;;;;;;;;19.10;40.00;;;;;;5093956;28;19947;-62
2023/03/02 08:38:23;;;;;;;;;;;19.10;40.10;;;;;;5092560;28;19930;-62
2023/03/02 08:40:51;;;;;;;;;;;19.10;40.10;;;;;;5088499;28;19920;-63
2023/03/02 08:43:18;;;;;;;;;;;19.10;40.00;;;;;;5089692;28;20006;-62
2023/03/02 08:45:46;;;;;;;;;;;19.10;40.00;;;;;;5110619;28;19964;-62
2023/03/02 08:48:13;;;;;;;;;;;19.10;40.10;;;;;;5110802;28;19920;-63
2023/03/02 08:50:40;;;;;;;;;;;19.10;40.10;;;;;;5093484;28;19923;-63
2023/03/02 08:53:06;;;;;;;;;;;19.10;40.10;;;;;;5093342;28;19928;-63
2023/03/02 08:55:34;;;;;;;;;;;19.10;40.10;;;;;;5092034;28;19920;-62
2023/03/02 08:58:01;;;;;;;;;;;19.10;40.10;;;;;;5086264;28;19930;-61
2023/03/02 09:00:31;;;;;;;;;;;19.10;40.10;;;;;;5088707;28;19947;-62
2023/03/02 09:03:01;;;;;;;;;;;19.10;40.10;;;;;;5086842;28;19927;-62
2023/03/02 09:05:27;;;;;;;;;;;19.10;40.10;;;;;;5108081;28;19962;-62
2023/03/02 09:07:54;;;;;;;;;;;19.10;40.10;;;;;;5085323;28;19932;-62
2023/03/02 09:10:24;;;;;;;;;;;19.10;40.10;;;;;;5092344;28;19977;-62
2023/03/02 09:12:52;;;;;;;;;;;19.10;40.10;;;;;;5091799;28;20529;-62
2023/03/02 09:15:19;;;;;;;;;;;19.10;40.10;;;;;;5105105;28;19927;-62
2023/03/02 09:17:45;;;;;;;;;;;19.10;40.10;;;;;;5125776;27;20203;-62
2023/03/02 09:20:14;;;;;;;;;;;19.10;40.10;;;;;;5092825;28;19919;-62
2023/03/02 09:22:47;;;;;;;;;;;19.10;40.10;;;;;;5091693;28;20411;-62
2023/03/02 09:25:21;;;;;;;;;;;19.10;40.10;;;;;;5106597;28;19942;-62
2023/03/02 09:27:48;;;;;;;;;;;19.10;40.10;;;;;;5092618;28;19934;-63
2023/03/02 09:30:15;;;;;;;;;;;19.10;40.10;;;;;;5111183;28;19972;-62
2023/03/02 09:32:42;;;;;;;;;;;19.10;40.10;;;;;;5092205;28;19936;-61
2023/03/02 09:35:09;;;;;;;;;;;19.10;40.10;;;;;;5092894;28;19927;-62
2023/03/02 09:37:37;;;;;;;;;;;19.10;40.10;;;;;;5091818;28;19924;-62
2023/03/02 09:40:05;;;;;;;;;;;19.10;40.10;;;;;;5109716;28;19923;-61
2023/03/02 09:42:53;;;;;;;;;;;19.10;40.20;;;;;;5091753;28;19923;-62
2023/03/02 09:45:21;;;;;;;;;;;19.10;40.10;;;;;;5101505;28;19924;-63
2023/03/02 09:47:50;;;;;;;;;;;19.10;40.10;;;;;;5092166;28;19976;-63
2023/03/02 09:50:28;;;;;;;;;;;19.10;40.20;;;;;;5092350;28;19973;-63
2023/03/02 09:53:00;;;;;;;;;;;19.10;40.10;;;;;;5110016;28;19924;-62
2023/03/02 09:55:27;;;;;;;;;;;19.10;40.20;;;;;;5117734;27;19920;-62
2023/03/02 09:57:54;;;;;;;;;;;19.10;40.20;;;;;;5091714;28;19966;-62
2023/03/02 10:00:23;;;;;;;;;;;19.10;40.10;;;;;;5092240;28;20319;-62
2023/03/02 10:02:50;;;;;;;;;;;19.10;40.10;;;;;;5110211;28;19967;-63
2023/03/02 10:05:18;;;;;;;;;;;19.10;40.10;;;;;;5092633;28;19919;-62
2023/03/02 10:07:45;;;;;;;;;;;19.10;40.10;;;;;;5091397;28;19965;-62
2023/03/02 10:10:18;;;;;;;;;;;19.10;40.10;;;;;;5091917;28;19931;-63
2023/03/02 10:12:48;;;;;;;;;;;19.10;40.20;;;;;;5091166;28;19923;-63
2023/03/02 10:15:16;;;;;;;;;;;19.10;40.20;;;;;;5091968;28;19949;-63
2023/03/02 10:17:50;;;;;;;;;;;19.10;40.20;;;;;;5110189;28;19920;-63
2023/03/02 10:20:18;;;;;;;;;;;19.10;40.20;;;;;;5092122;28;19927;-63
2023/03/02 10:22:46;;;;;;;;;;;19.10;40.20;;;;;;5091517;28;19923;-63
2023/03/02 10:25:18;;;;;;;;;;;19.10;40.10;;;;;;5110039;28;19919;-63
2023/03/02 10:27:47;;;;;;;;;;;19.10;40.20;;;;;;5110171;28;19932;-63
2023/03/02 10:30:15;;;;;;;;;;;19.10;40.20;;;;;;5108809;28;19973;-62
2023/03/02 10:32:43;;;;;;;;;;;19.10;40.80;;;;;;5097424;28;19973;-63
2023/03/02 10:35:12;;;;;;;;;;;19.10;40.20;;;;;;5087798;28;19923;-62
2023/03/02 10:37:39;;;;;;;;;;;19.10;40.20;;;;;;5109599;28;20242;-61
2023/03/02 10:40:06;;;;;;;;;;;19.10;40.20;;;;;;5091605;28;19965;-61
2023/03/02 10:42:35;;;;;;;;;;;19.10;40.20;;;;;;5109475;28;19941;-61
2023/03/02 10:45:03;;;;;;;;;;;19.10;40.20;;;;;;5083486;28;19935;-63
2023/03/02 10:47:30;;;;;;;;;;;19.10;40.20;;;;;;5087095;28;19923;-63
2023/03/02 10:49:57;;;;;;;;;;;19.10;40.20;;;;;;5091297;28;19963;-63
2023/03/02 10:52:24;;;;;;;;;;;19.10;40.20;;;;;;5091372;28;19968;-61
2023/03/02 10:55:01;;;;;;;;;;;19.10;40.20;;;;;;5091061;28;19928;-61
2023/03/02 10:57:29;;;;;;;;;;;19.10;40.20;;;;;;5121994;28;19926;-62
2023/03/02 10:59:59;;;;;;;;;;;19.10;40.20;;;;;;5087875;28;19954;-62
2023/03/02 11:02:27;;;;;;;;;;;19.10;40.20;;;;;;5091561;28;19973;-62
2023/03/02 11:04:54;;;;;;;;;;;19.10;40.20;;;;;;5090886;28;19924;-62
2023/03/02 11:07:21;;;;;;;;;;;19.10;40.20;;;;;;5109735;28;20018;-63
2023/03/02 11:09:58;;;;;;;;;;;19.10;40.20;;;;;;5090593;28;19924;-63
2023/03/02 11:12:25;;;;;;;;;;;19.10;40.20;;;;;;5094345;28;19980;-63
2023/03/02 11:15:02;;;;;;;;;;;19.10;40.20;;;;;;5094833;28;19968;-63
2023/03/02 11:17:30;;;;;;;;;;;19.10;40.20;;;;;;5095308;28;19947;-63
2023/03/02 11:19:57;;;;;;;;;;;19.10;40.20;;;;;;5095086;28;20385;-63
2023/03/02 11:22:26;;;;;;;;;;;19.10;40.20;;;;;;5113765;28;19920;-63
2023/03/02 11:24:53;;;;;;;;;;;19.10;40.20;;;;;;5112956;28;19934;-62
2023/03/02 11:27:21;;;;;;;;;;;19.10;40.20;;;;;;5095302;28;19923;-62
2023/03/02 11:29:49;;;;;;;;;;;19.10;40.20;;;;;;5112865;28;19997;-62
2023/03/02 11:32:18;;;;;;;;;;;19.10;40.20;;;;;;5095530;28;19924;-62
2023/03/02 11:34:45;;;;;;;;;;;19.10;40.20;;;;;;5094637;28;19931;-62
2023/03/02 11:37:14;;;;;;;;;;;19.10;40.30;;;;;;5113058;28;20276;-63
2023/03/02 11:39:49;;;;;;;;;;;19.10;40.30;;;;;;5094292;28;19923;-63
2023/03/02 11:42:19;;;;;;;;;;;19.10;40.20;;;;;;5113493;28;19927;-62
2023/03/02 11:44:46;;;;;;;;;;;19.10;40.20;;;;;;5094088;28;19924;-63
2023/03/02 11:47:12;;;;;;;;;;;19.10;40.20;;;;;;5113301;28;20022;-63
2023/03/02 11:49:42;;;;;;;;;;;19.10;40.20;;;;;;5084506;28;19943;-62
2023/03/02 11:52:13;;;;;;;;;;;19.10;40.90;;;;;;5104672;28;19965;-63
2023/03/02 11:54:41;;;;;;;;;;;19.10;40.20;;;;;;5082938;28;19941;-63
2023/03/02 11:57:08;;;;;;;;;;;19.20;40.30;;;;;;5112553;28;19985;-63
2023/03/02 11:59:35;;;;;;;;;;;19.10;40.30;;;;;;5108889;28;19919;-62
2023/03/02 12:02:02;;;;;;;;;;;19.20;40.40;;;;;;5111437;28;19920;-62
2023/03/02 12:04:31;;;;;;;;;;;19.10;40.30;;;;;;5094327;28;20156;-63
2023/03/02 12:06:59;;;;;;;;;;;19.10;40.30;;;;;;5112603;28;19920;-59
2023/03/02 12:09:29;;;;;;;;;;;19.10;40.30;;;;;;5109659;28;19943;-62
2023/03/02 12:11:57;;;;;;;;;;;19.20;40.30;;;;;;5121722;27;19927;-63
2023/03/02 12:14:29;;;;;;;;;;;19.10;40.30;;;;;;5086278;28;19920;-63
2023/03/02 12:17:05;;;;;;;;;;;19.20;40.40;;;;;;5093672;28;19920;-63
2023/03/02 12:19:38;;;;;;;;;;;19.20;40.40;;;;;;5107712;28;19920;-62
2023/03/02 12:22:09;;;;;;;;;;;19.20;40.40;;;;;;5091345;28;19919;-62
2023/03/02 12:24:36;;;;;;;;;;;19.20;40.40;;;;;;5092896;28;19920;-62
2023/03/02 12:27:04;;;;;;;;;;;19.20;40.40;;;;;;5094203;28;19928;-62
2023/03/02 12:29:38;;;;;;;;;;;19.20;40.40;;;;;;5111872;28;19923;-62
2023/03/02 12:32:10;;;;;;;;;;;19.20;40.40;;;;;;5084150;28;19924;-62
2023/03/02 12:34:37;;;;;;;;;;;19.20;40.40;;;;;;5094181;28;19930;-63
2023/03/02 12:37:05;;;;;;;;;;;19.10;40.30;;;;;;5093071;28;20071;-63
2023/03/02 12:39:37;;;;;;;;;;;19.20;40.40;;;;;;5088847;28;19924;-63
2023/03/02 12:42:11;;;;;;;;;;;19.20;40.40;;;;;;5087819;28;20345;-63
2023/03/02 12:44:42;;;;;;;;;;;19.20;40.40;;;;;;5116857;27;19920;-63
2023/03/02 12:47:12;;;;;;;;;;;19.20;40.40;;;;;;5109934;28;19924;-63
2023/03/02 12:49:44;;;;;;;;;;;19.20;40.40;;;;;;5089380;28;19924;-63
2023/03/02 12:52:26;;;;;;;;;;;19.20;40.40;;;;;;5120835;27;19926;-63
2023/03/02 12:55:02;;;;;;;;;;;19.20;40.40;;;;;;5105243;28;20377;-63
2023/03/02 12:57:29;;;;;;;;;;;19.20;40.40;;;;;;5092449;28;19919;-62
2023/03/02 12:59:56;;;;;;;;;;;19.20;40.40;;;;;;5093255;28;19962;-62
2023/03/02 13:02:23;;;;;;;;;;;19.20;40.40;;;;;;5092890;28;20354;-62
2023/03/02 13:04:54;;;;;;;;;;;19.20;40.40;;;;;;5092378;28;20331;-62
2023/03/02 13:07:23;;;;;;;;;;;19.20;40.40;;;;;;5092216;28;19920;-62
2023/03/02 13:09:50;;;;;;;;;;;19.20;40.40;;;;;;5092870;28;19924;-63
2023/03/02 13:12:18;;;;;;;;;;;19.20;40.40;;;;;;5084617;28;19931;-62
2023/03/02 13:14:46;;;;;;;;;;;19.20;40.40;;;;;;5078767;28;19969;-63
2023/03/02 13:17:19;;;;;;;;;;;19.20;40.40;;;;;;5089315;28;19976;-63
2023/03/02 13:19:45;;;;;;;;;;;19.20;40.40;;;;;;5087645;28;19920;-63
2023/03/02 13:22:13;;;;;;;;;;;19.20;40.40;;;;;;5093386;28;19927;-63
2023/03/02 13:24:44;;;;;;;;;;;19.20;40.50;;;;;;5105468;28;19923;-63
2023/03/02 13:27:14;;;;;;;;;;;19.20;40.40;;;;;;5093159;28;19920;-63
2023/03/02 13:29:42;;;;;;;;;;;19.20;40.40;;;;;;5091568;28;19924;-63
2023/03/02 13:32:16;;;;;;;;;;;19.20;40.40;;;;;;5092686;28;19923;-63
2023/03/02 13:34:45;;;;;;;;;;;19.20;40.40;;;;;;5090422;28;19943;-62
2023/03/02 13:37:17;;;;;;;;;;;19.20;40.50;;;;;;5092543;28;19924;-62
2023/03/02 13:39:44;;;;;;;;;;;19.20;40.50;;;;;;5074763;28;19930;-62
2023/03/02 13:42:23;;;;;;;;;;;19.20;40.50;;;;;;5108138;28;20390;-62
2023/03/02 13:44:51;;;;;;;;;;;19.20;40.50;;;;;;5091293;28;20393;-62
2023/03/02 13:47:21;;;;;;;;;;;19.20;40.50;;;;;;5108551;28;19928;-63
2023/03/02 13:49:48;;;;;;;;;;;19.20;40.50;;;;;;5088617;28;20445;-62
2023/03/02 13:52:16;;;;;;;;;;;19.20;40.50;;;;;;5110425;28;19930;-62
2023/03/02 13:54:43;;;;;;;;;;;19.20;40.50;;;;;;5084227;28;19946;-62
2023/03/02 13:57:11;;;;;;;;;;;19.20;40.50;;;;;;5106683;28;19920;-62
2023/03/02 13:59:37;;;;;;;;;;;19.20;40.50;;;;;;5078309;28;19969;-62
2023/03/02 14:02:09;;;;;;;;;;;19.20;40.60;;;;;;5091619;28;20475;-63
2023/03/02 14:04:35;;;;;;;;;;;19.20;40.50;;;;;;5110549;28;20008;-63
2023/03/02 14:07:02;;;;;;;;;;;19.20;40.50;;;;;;5091735;28;19945;-62
2023/03/02 14:09:29;;;;;;;;;;;19.20;40.60;;;;;;5091729;28;20387;-63
2023/03/02 14:11:56;;;;;;;;;;;19.20;40.60;;;;;;5091652;28;20112;-63
2023/03/02 14:14:25;;;;;;;;;;;19.20;40.60;;;;;;5109303;28;20517;-62
2023/03/02 14:16:52;;;;;;;;;;;19.20;40.60;;;;;;5109949;28;19939;-63
2023/03/02 14:19:20;;;;;;;;;;;19.20;40.60;;;;;;5091657;28;19920;-63